sensor_id;sensor_type;location;lat;lon;timestamp;temperature;humidity
7461;DHT22;6757;52.258;12.840;2023-04-24T00:01:06;10.70;99.90
7461;DHT22;6757;52.258;12.840;2023-04-24T00:03:34;10.10;99.90
7461;DHT22;6757;52.258;12.840;2023-04-24T00:06:01;11.10;99.90
7461;DHT22;6757;52.258;12.840;2023-04-24T00:08:29;10.10;99.90
7461;DHT22;6757;52.258;12.840;2023-04-24T00:10:56;10.10;99.90
7461;DHT22;6757;52.258;12.840;2023-04-24T00:13:24;10.10;99.90
7461;DHT22;6757;52.258;12.840;2023-04-24T00:15:50;10.20;99.90
7461;DHT22;6757;52.258;12.840;2023-04-24T00:18:17;10.20;99.90
7461;DHT22;6757;52.258;12.840;2023-04-24T00:20:44;10.20;99.90
7461;DHT22;6757;52.258;12.840;2023-04-24T00:23:12;10.20;99.90
7461;DHT22;6757;52.258;12.840;2023-04-24T00:25:40;10.20;99.90
7461;DHT22;6757;52.258;12.840;2023-04-24T00:28:07;10.20;99.90
7461;DHT22;6757;52.258;12.840;2023-04-24T00:30:34;10.30;99.90
7461;DHT22;6757;52.258;12.840;2023-04-24T00:33:01;10.30;99.90
7461;DHT22;6757;52.258;12.840;2023-04-24T00:35:28;10.30;99.90
7461;DHT22;6757;52.258;12.840;2023-04-24T00:37:55;10.30;99.90
7461;DHT22;6757;52.258;12.840;2023-04-24T00:40:22;10.40;99.90
7461;DHT22;6757;52.258;12.840;2023-04-24T00:42:50;10.30;99.90
7461;DHT22;6757;52.258;12.840;2023-04-24T00:45:18;10.30;99.90
7461;DHT22;6757;52.258;12.840;2023-04-24T00:47:45;10.30;99.90
7461;DHT22;6757;52.258;12.840;2023-04-24T00:50:15;10.80;99.90
7461;DHT22;6757;52.258;12.840;2023-04-24T00:52:42;10.40;99.90
7461;DHT22;6757;52.258;12.840;2023-04-24T00:55:09;10.40;99.90
7461;DHT22;6757;52.258;12.840;2023-04-24T00:57:37;10.40;99.90
7461;DHT22;6757;52.258;12.840;2023-04-24T01:00:06;10.50;99.90
7461;DHT22;6757;52.258;12.840;2023-04-24T01:02:38;10.50;99.90
7461;DHT22;6757;52.258;12.840;2023-04-24T01:05:09;10.50;99.90
7461;DHT22;6757;52.258;12.840;2023-04-24T01:07:38;10.50;99.90
7461;DHT22;6757;52.258;12.840;2023-04-24T01:10:06;10.50;99.90
7461;DHT22;6757;52.258;12.840;2023-04-24T01:12:34;10.50;99.90
7461;DHT22;6757;52.258;12.840;2023-04-24T01:15:01;10.50;99.90
7461;DHT22;6757;52.258;12.840;2023-04-24T01:17:32;10.50;99.90
7461;DHT22;6757;52.258;12.840;2023-04-24T01:19:59;10.50;99.90
7461;DHT22;6757;52.258;12.840;2023-04-24T01:22:27;10.50;99.90
7461;DHT22;6757;52.258;12.840;2023-04-24T01:24:54;10.50;99.90
7461;DHT22;6757;52.258;12.840;2023-04-24T01:27:21;10.50;99.90
7461;DHT22;6757;52.258;12.840;2023-04-24T01:29:48;10.50;99.90
7461;DHT22;6757;52.258;12.840;2023-04-24T01:32:17;10.50;99.90
7461;DHT22;6757;52.258;12.840;2023-04-24T01:34:45;10.60;99.90
7461;DHT22;6757;52.258;12.840;2023-04-24T01:37:13;10.50;99.90
7461;DHT22;6757;52.258;12.840;2023-04-24T01:39:42;10.60;99.90
7461;DHT22;6757;52.258;12.840;2023-04-24T01:42:09;10.60;99.90
7461;DHT22;6757;52.258;12.840;2023-04-24T01:44:36;10.60;99.90
7461;DHT22;6757;52.258;12.840;2023-04-24T01:47:04;10.60;99.90
7461;DHT22;6757;52.258;12.840;2023-04-24T01:49:32;10.60;99.90
7461;DHT22;6757;52.258;12.840;2023-04-24T01:51:59;10.60;99.90
7461;DHT22;6757;52.258;12.840;2023-04-24T01:54:26;10.60;99.90
7461;DHT22;6757;52.258;12.840;2023-04-24T01:56:55;10.60;99.90
7461;DHT22;6757;52.258;12.840;2023-04-24T01:59:23;10.60;99.90
7461;DHT22;6757;52.258;12.840;2023-04-24T02:01:51;10.60;99.90
7461;DHT22;6757;52.258;12.840;2023-04-24T02:04:18;10.60;99.90
7461;DHT22;6757;52.258;12.840;2023-04-24T02:06:45;10.50;99.90
7461;DHT22;6757;52.258;12.840;2023-04-24T02:09:12;10.50;99.90
7461;DHT22;6757;52.258;12.840;2023-04-24T02:11:39;10.50;99.90
7461;DHT22;6757;52.258;12.840;2023-04-24T02:14:08;10.60;99.90
7461;DHT22;6757;52.258;12.840;2023-04-24T02:16:34;10.50;99.90
7461;DHT22;6757;52.258;12.840;2023-04-24T02:19:02;10.50;99.90
7461;DHT22;6757;52.258;12.840;2023-04-24T02:21:29;10.50;99.90
7461;DHT22;6757;52.258;12.840;2023-04-24T02:23:56;10.40;99.90
7461;DHT22;6757;52.258;12.840;2023-04-24T02:26:23;10.50;99.90
7461;DHT22;6757;52.258;12.840;2023-04-24T02:28:50;10.40;99.90
7461;DHT22;6757;52.258;12.840;2023-04-24T02:31:19;10.40;99.90
7461;DHT22;6757;52.258;12.840;2023-04-24T02:33:46;10.40;99.90
7461;DHT22;6757;52.258;12.840;2023-04-24T02:36:13;10.50;99.90
7461;DHT22;6757;52.258;12.840;2023-04-24T02:38:41;10.40;99.90
7461;DHT22;6757;52.258;12.840;2023-04-24T02:41:09;10.40;99.90
7461;DHT22;6757;52.258;12.840;2023-04-24T02:43:37;10.40;99.90
7461;DHT22;6757;52.258;12.840;2023-04-24T02:46:05;10.40;99.90
7461;DHT22;6757;52.258;12.840;2023-04-24T02:48:34;10.40;99.90
7461;DHT22;6757;52.258;12.840;2023-04-24T02:51:03;10.40;99.90
7461;DHT22;6757;52.258;12.840;2023-04-24T02:53:32;10.40;99.90
7461;DHT22;6757;52.258;12.840;2023-04-24T02:55:59;10.40;99.90
7461;DHT22;6757;52.258;12.840;2023-04-24T02:58:26;11.20;99.90
7461;DHT22;6757;52.258;12.840;2023-04-24T03:00:53;10.40;99.90
7461;DHT22;6757;52.258;12.840;2023-04-24T03:03:22;10.40;99.90
7461;DHT22;6757;52.258;12.840;2023-04-24T03:05:50;10.40;99.90
7461;DHT22;6757;52.258;12.840;2023-04-24T03:08:17;10.40;99.90
7461;DHT22;6757;52.258;12.840;2023-04-24T03:10:44;10.50;99.90
7461;DHT22;6757;52.258;12.840;2023-04-24T03:13:11;10.50;99.90
7461;DHT22;6757;52.258;12.840;2023-04-24T03:15:38;10.60;99.90
7461;DHT22;6757;52.258;12.840;2023-04-24T03:18:05;10.60;99.90
7461;DHT22;6757;52.258;12.840;2023-04-24T03:20:32;10.60;99.90
7461;DHT22;6757;52.258;12.840;2023-04-24T03:23:00;10.60;99.90
7461;DHT22;6757;52.258;12.840;2023-04-24T03:25:28;10.60;99.90
7461;DHT22;6757;52.258;12.840;2023-04-24T03:27:55;10.60;99.90
7461;DHT22;6757;52.258;12.840;2023-04-24T03:30:22;10.60;99.90
7461;DHT22;6757;52.258;12.840;2023-04-24T03:32:49;10.60;99.90
7461;DHT22;6757;52.258;12.840;2023-04-24T03:35:17;10.60;99.90
7461;DHT22;6757;52.258;12.840;2023-04-24T03:37:43;10.60;99.90
7461;DHT22;6757;52.258;12.840;2023-04-24T03:40:12;10.60;99.90
7461;DHT22;6757;52.258;12.840;2023-04-24T03:42:39;10.60;99.90
7461;DHT22;6757;52.258;12.840;2023-04-24T03:45:07;10.50;99.90
7461;DHT22;6757;52.258;12.840;2023-04-24T03:47:35;10.50;99.90
7461;DHT22;6757;52.258;12.840;2023-04-24T03:50:02;10.50;99.90
7461;DHT22;6757;52.258;12.840;2023-04-24T03:52:30;10.40;99.90
7461;DHT22;6757;52.258;12.840;2023-04-24T03:54:57;10.40;99.90
7461;DHT22;6757;52.258;12.840;2023-04-24T03:57:25;10.30;99.90
7461;DHT22;6757;52.258;12.840;2023-04-24T03:59:52;10.30;99.90
7461;DHT22;6757;52.258;12.840;2023-04-24T04:02:19;10.30;99.90
7461;DHT22;6757;52.258;12.840;2023-04-24T04:04:46;10.30;99.90
7461;DHT22;6757;52.258;12.840;2023-04-24T04:07:13;10.30;99.90
7461;DHT22;6757;52.258;12.840;2023-04-24T04:09:40;10.30;99.90
7461;DHT22;6757;52.258;12.840;2023-04-24T04:12:07;10.30;99.90
7461;DHT22;6757;52.258;12.840;2023-04-24T04:14:35;10.30;99.90
7461;DHT22;6757;52.258;12.840;2023-04-24T04:17:02;10.20;99.90
7461;DHT22;6757;52.258;12.840;2023-04-24T04:19:29;10.30;99.90
7461;DHT22;6757;52.258;12.840;2023-04-24T04:21:56;10.30;99.90
7461;DHT22;6757;52.258;12.840;2023-04-24T04:24:24;10.20;99.90
7461;DHT22;6757;52.258;12.840;2023-04-24T04:26:52;10.20;99.90
7461;DHT22;6757;52.258;12.840;2023-04-24T04:29:22;10.30;99.90
7461;DHT22;6757;52.258;12.840;2023-04-24T04:31:50;10.20;99.90
7461;DHT22;6757;52.258;12.840;2023-04-24T04:34:17;10.20;99.90
7461;DHT22;6757;52.258;12.840;2023-04-24T04:36:45;10.20;99.90
7461;DHT22;6757;52.258;12.840;2023-04-24T04:39:11;10.10;99.90
7461;DHT22;6757;52.258;12.840;2023-04-24T04:41:40;10.20;99.90
7461;DHT22;6757;52.258;12.840;2023-04-24T04:44:07;10.20;99.90
7461;DHT22;6757;52.258;12.840;2023-04-24T04:46:35;10.20;99.90
7461;DHT22;6757;52.258;12.840;2023-04-24T04:49:05;10.20;99.90
7461;DHT22;6757;52.258;12.840;2023-04-24T04:51:33;10.20;99.90
7461;DHT22;6757;52.258;12.840;2023-04-24T04:54:00;10.20;99.90
7461;DHT22;6757;52.258;12.840;2023-04-24T04:56:27;10.30;99.90
7461;DHT22;6757;52.258;12.840;2023-04-24T04:58:55;10.30;99.90
7461;DHT22;6757;52.258;12.840;2023-04-24T05:01:22;10.30;99.90
7461;DHT22;6757;52.258;12.840;2023-04-24T05:03:49;10.30;99.90
7461;DHT22;6757;52.258;12.840;2023-04-24T05:06:18;10.40;99.90
7461;DHT22;6757;52.258;12.840;2023-04-24T05:08:45;11.10;99.90
7461;DHT22;6757;52.258;12.840;2023-04-24T05:11:12;10.40;99.90
7461;DHT22;6757;52.258;12.840;2023-04-24T05:13:39;10.40;99.90
7461;DHT22;6757;52.258;12.840;2023-04-24T05:16:06;10.40;99.90
7461;DHT22;6757;52.258;12.840;2023-04-24T05:18:33;10.50;99.90
7461;DHT22;6757;52.258;12.840;2023-04-24T05:21:00;10.50;99.90
7461;DHT22;6757;52.258;12.840;2023-04-24T05:23:28;10.50;99.90
7461;DHT22;6757;52.258;12.840;2023-04-24T05:25:56;10.60;99.90
7461;DHT22;6757;52.258;12.840;2023-04-24T05:28:23;10.60;99.90
7461;DHT22;6757;52.258;12.840;2023-04-24T05:30:53;11.20;99.90
7461;DHT22;6757;52.258;12.840;2023-04-24T05:33:21;10.70;99.90
7461;DHT22;6757;52.258;12.840;2023-04-24T05:35:48;10.80;99.90
7461;DHT22;6757;52.258;12.840;2023-04-24T05:38:15;10.80;99.90
7461;DHT22;6757;52.258;12.840;2023-04-24T05:40:44;10.90;99.90
7461;DHT22;6757;52.258;12.840;2023-04-24T05:43:11;11.00;99.90
7461;DHT22;6757;52.258;12.840;2023-04-24T05:45:38;11.00;99.90
7461;DHT22;6757;52.258;12.840;2023-04-24T05:48:05;11.10;99.90
7461;DHT22;6757;52.258;12.840;2023-04-24T05:50:32;11.10;99.90
7461;DHT22;6757;52.258;12.840;2023-04-24T05:52:59;11.20;99.90
7461;DHT22;6757;52.258;12.840;2023-04-24T05:55:27;11.20;99.90
7461;DHT22;6757;52.258;12.840;2023-04-24T05:57:56;11.30;99.90
7461;DHT22;6757;52.258;12.840;2023-04-24T06:00:23;11.40;99.90
7461;DHT22;6757;52.258;12.840;2023-04-24T06:02:51;11.50;99.90
7461;DHT22;6757;52.258;12.840;2023-04-24T06:05:18;11.60;99.90
7461;DHT22;6757;52.258;12.840;2023-04-24T06:07:45;11.70;99.90
7461;DHT22;6757;52.258;12.840;2023-04-24T06:10:12;11.80;99.90
7461;DHT22;6757;52.258;12.840;2023-04-24T06:12:39;11.90;99.90
7461;DHT22;6757;52.258;12.840;2023-04-24T06:15:08;12.00;99.90
7461;DHT22;6757;52.258;12.840;2023-04-24T06:17:36;12.10;99.90
7461;DHT22;6757;52.258;12.840;2023-04-24T06:20:03;12.10;99.90
7461;DHT22;6757;52.258;12.840;2023-04-24T06:22:32;12.20;99.90
7461;DHT22;6757;52.258;12.840;2023-04-24T06:24:59;12.20;99.90
7461;DHT22;6757;52.258;12.840;2023-04-24T06:27:26;12.20;99.90
7461;DHT22;6757;52.258;12.840;2023-04-24T06:29:53;12.20;99.90
7461;DHT22;6757;52.258;12.840;2023-04-24T06:32:23;12.20;99.90
7461;DHT22;6757;52.258;12.840;2023-04-24T06:34:51;12.70;99.90
7461;DHT22;6757;52.258;12.840;2023-04-24T06:37:19;12.20;99.90
7461;DHT22;6757;52.258;12.840;2023-04-24T06:39:46;12.20;99.90
7461;DHT22;6757;52.258;12.840;2023-04-24T06:42:13;12.30;99.90
7461;DHT22;6757;52.258;12.840;2023-04-24T06:44:41;12.30;99.90
7461;DHT22;6757;52.258;12.840;2023-04-24T06:47:08;12.40;99.90
7461;DHT22;6757;52.258;12.840;2023-04-24T06:49:37;12.50;99.90
7461;DHT22;6757;52.258;12.840;2023-04-24T06:52:04;12.50;99.90
7461;DHT22;6757;52.258;12.840;2023-04-24T06:54:32;13.40;99.90
7461;DHT22;6757;52.258;12.840;2023-04-24T06:57:00;12.70;99.90
7461;DHT22;6757;52.258;12.840;2023-04-24T06:59:28;12.80;99.90
7461;DHT22;6757;52.258;12.840;2023-04-24T07:01:55;12.90;99.90
7461;DHT22;6757;52.258;12.840;2023-04-24T07:04:23;12.90;99.90
7461;DHT22;6757;52.258;12.840;2023-04-24T07:06:52;13.00;99.90
7461;DHT22;6757;52.258;12.840;2023-04-24T07:09:21;13.10;99.90
7461;DHT22;6757;52.258;12.840;2023-04-24T07:11:49;13.20;99.90
7461;DHT22;6757;52.258;12.840;2023-04-24T07:14:17;13.30;99.90
7461;DHT22;6757;52.258;12.840;2023-04-24T07:16:44;13.30;99.90
7461;DHT22;6757;52.258;12.840;2023-04-24T07:19:11;13.40;99.90
7461;DHT22;6757;52.258;12.840;2023-04-24T07:21:38;13.50;99.90
7461;DHT22;6757;52.258;12.840;2023-04-24T07:24:07;13.60;99.90
7461;DHT22;6757;52.258;12.840;2023-04-24T07:26:37;13.70;99.90
7461;DHT22;6757;52.258;12.840;2023-04-24T07:29:05;13.80;99.90
7461;DHT22;6757;52.258;12.840;2023-04-24T07:31:32;13.90;99.90
7461;DHT22;6757;52.258;12.840;2023-04-24T07:33:59;14.00;99.90
7461;DHT22;6757;52.258;12.840;2023-04-24T07:36:26;14.10;99.90
7461;DHT22;6757;52.258;12.840;2023-04-24T07:38:54;14.10;99.90
7461;DHT22;6757;52.258;12.840;2023-04-24T07:41:23;14.70;99.90
7461;DHT22;6757;52.258;12.840;2023-04-24T07:43:50;14.30;99.90
7461;DHT22;6757;52.258;12.840;2023-04-24T07:46:18;14.40;99.90
7461;DHT22;6757;52.258;12.840;2023-04-24T07:48:45;14.50;99.90
7461;DHT22;6757;52.258;12.840;2023-04-24T07:51:14;14.60;99.90
7461;DHT22;6757;52.258;12.840;2023-04-24T07:53:41;14.60;99.90
7461;DHT22;6757;52.258;12.840;2023-04-24T07:56:08;14.60;99.90
7461;DHT22;6757;52.258;12.840;2023-04-24T07:58:36;14.60;99.90
7461;DHT22;6757;52.258;12.840;2023-04-24T08:01:03;14.60;99.90
7461;DHT22;6757;52.258;12.840;2023-04-24T08:03:30;14.70;99.90
7461;DHT22;6757;52.258;12.840;2023-04-24T08:05:57;14.80;99.90
7461;DHT22;6757;52.258;12.840;2023-04-24T08:08:25;14.90;99.90
7461;DHT22;6757;52.258;12.840;2023-04-24T08:10:52;14.90;99.90
7461;DHT22;6757;52.258;12.840;2023-04-24T08:13:19;15.00;99.90
7461;DHT22;6757;52.258;12.840;2023-04-24T08:15:47;15.00;99.90
7461;DHT22;6757;52.258;12.840;2023-04-24T08:18:14;15.10;99.90
7461;DHT22;6757;52.258;12.840;2023-04-24T08:20:41;15.60;99.90
7461;DHT22;6757;52.258;12.840;2023-04-24T08:23:09;15.10;99.90
7461;DHT22;6757;52.258;12.840;2023-04-24T08:25:36;15.10;99.90
7461;DHT22;6757;52.258;12.840;2023-04-24T08:28:03;15.10;99.90
7461;DHT22;6757;52.258;12.840;2023-04-24T08:30:32;15.10;99.90
7461;DHT22;6757;52.258;12.840;2023-04-24T08:33:00;15.10;99.90
7461;DHT22;6757;52.258;12.840;2023-04-24T08:35:27;15.20;99.90
7461;DHT22;6757;52.258;12.840;2023-04-24T08:37:54;15.20;99.90
7461;DHT22;6757;52.258;12.840;2023-04-24T08:40:26;15.30;99.90
7461;DHT22;6757;52.258;12.840;2023-04-24T08:42:55;15.20;99.90
7461;DHT22;6757;52.258;12.840;2023-04-24T08:45:23;15.20;99.90
7461;DHT22;6757;52.258;12.840;2023-04-24T08:47:52;15.20;99.90
7461;DHT22;6757;52.258;12.840;2023-04-24T08:50:21;15.20;99.90
7461;DHT22;6757;52.258;12.840;2023-04-24T08:52:50;15.40;99.90
7461;DHT22;6757;52.258;12.840;2023-04-24T08:55:19;15.20;99.90
7461;DHT22;6757;52.258;12.840;2023-04-24T08:57:50;15.20;99.90
7461;DHT22;6757;52.258;12.840;2023-04-24T09:00:19;15.20;99.90
7461;DHT22;6757;52.258;12.840;2023-04-24T09:02:49;15.30;99.90
7461;DHT22;6757;52.258;12.840;2023-04-24T09:05:17;15.30;99.90
7461;DHT22;6757;52.258;12.840;2023-04-24T09:07:50;15.40;99.90
7461;DHT22;6757;52.258;12.840;2023-04-24T09:10:21;15.50;99.90
7461;DHT22;6757;52.258;12.840;2023-04-24T09:12:50;15.50;99.90
7461;DHT22;6757;52.258;12.840;2023-04-24T09:15:18;15.60;99.90
7461;DHT22;6757;52.258;12.840;2023-04-24T09:17:46;15.70;99.90
7461;DHT22;6757;52.258;12.840;2023-04-24T09:20:13;15.80;99.90
7461;DHT22;6757;52.258;12.840;2023-04-24T09:22:41;15.80;99.90
7461;DHT22;6757;52.258;12.840;2023-04-24T09:25:10;15.90;99.90
7461;DHT22;6757;52.258;12.840;2023-04-24T09:27:41;15.90;99.90
7461;DHT22;6757;52.258;12.840;2023-04-24T09:30:10;15.80;99.90
7461;DHT22;6757;52.258;12.840;2023-04-24T09:32:38;15.80;99.90
7461;DHT22;6757;52.258;12.840;2023-04-24T09:35:10;15.70;99.90
7461;DHT22;6757;52.258;12.840;2023-04-24T09:37:40;15.70;99.90
7461;DHT22;6757;52.258;12.840;2023-04-24T09:40:11;15.60;99.90
7461;DHT22;6757;52.258;12.840;2023-04-24T09:42:40;15.80;99.90
7461;DHT22;6757;52.258;12.840;2023-04-24T09:45:11;15.60;99.90
7461;DHT22;6757;52.258;12.840;2023-04-24T09:47:38;15.60;99.90
7461;DHT22;6757;52.258;12.840;2023-04-24T09:50:16;15.60;99.90
7461;DHT22;6757;52.258;12.840;2023-04-24T09:52:43;15.70;99.90
7461;DHT22;6757;52.258;12.840;2023-04-24T09:55:15;15.80;99.90
7461;DHT22;6757;52.258;12.840;2023-04-24T09:57:48;15.90;99.90
7461;DHT22;6757;52.258;12.840;2023-04-24T10:00:22;16.00;99.90
7461;DHT22;6757;52.258;12.840;2023-04-24T10:02:51;16.10;99.90
7461;DHT22;6757;52.258;12.840;2023-04-24T10:05:23;16.10;99.90
7461;DHT22;6757;52.258;12.840;2023-04-24T10:07:52;16.70;99.90
7461;DHT22;6757;52.258;12.840;2023-04-24T10:10:25;16.30;99.90
7461;DHT22;6757;52.258;12.840;2023-04-24T10:12:53;16.20;99.90
7461;DHT22;6757;52.258;12.840;2023-04-24T10:15:21;16.10;99.90
7461;DHT22;6757;52.258;12.840;2023-04-24T10:17:49;16.00;99.90
7461;DHT22;6757;52.258;12.840;2023-04-24T10:20:20;15.90;99.90
7461;DHT22;6757;52.258;12.840;2023-04-24T10:22:49;15.80;99.90
7461;DHT22;6757;52.258;12.840;2023-04-24T10:25:18;15.80;99.90
7461;DHT22;6757;52.258;12.840;2023-04-24T10:27:49;15.80;99.90
7461;DHT22;6757;52.258;12.840;2023-04-24T10:30:17;15.90;99.90
7461;DHT22;6757;52.258;12.840;2023-04-24T10:32:45;16.00;99.90
7461;DHT22;6757;52.258;12.840;2023-04-24T10:35:13;16.10;99.90
7461;DHT22;6757;52.258;12.840;2023-04-24T10:37:45;16.20;99.90
7461;DHT22;6757;52.258;12.840;2023-04-24T10:40:18;16.30;99.90
7461;DHT22;6757;52.258;12.840;2023-04-24T10:42:49;16.40;99.90
7461;DHT22;6757;52.258;12.840;2023-04-24T10:45:19;16.50;99.90
7461;DHT22;6757;52.258;12.840;2023-04-24T10:48:01;16.50;99.90
7461;DHT22;6757;52.258;12.840;2023-04-24T10:50:42;16.60;99.90
7461;DHT22;6757;52.258;12.840;2023-04-24T10:53:15;16.50;99.90
7461;DHT22;6757;52.258;12.840;2023-04-24T10:55:45;16.60;99.90
7461;DHT22;6757;52.258;12.840;2023-04-24T10:58:15;16.50;99.90
7461;DHT22;6757;52.258;12.840;2023-04-24T11:00:43;16.60;99.90
7461;DHT22;6757;52.258;12.840;2023-04-24T11:03:25;16.60;99.90
7461;DHT22;6757;52.258;12.840;2023-04-24T11:05:59;16.70;99.90
7461;DHT22;6757;52.258;12.840;2023-04-24T11:08:32;16.70;99.90
7461;DHT22;6757;52.258;12.840;2023-04-24T11:11:09;16.80;99.90
7461;DHT22;6757;52.258;12.840;2023-04-24T11:14:06;16.80;99.90
7461;DHT22;6757;52.258;12.840;2023-04-24T11:16:43;16.70;99.90
7461;DHT22;6757;52.258;12.840;2023-04-24T11:19:20;16.80;99.90
7461;DHT22;6757;52.258;12.840;2023-04-24T11:21:55;16.80;99.90
7461;DHT22;6757;52.258;12.840;2023-04-24T11:24:28;16.80;99.90
7461;DHT22;6757;52.258;12.840;2023-04-24T11:26:58;16.90;99.90
7461;DHT22;6757;52.258;12.840;2023-04-24T11:29:43;17.50;99.90
7461;DHT22;6757;52.258;12.840;2023-04-24T11:32:24;16.90;99.90
7461;DHT22;6757;52.258;12.840;2023-04-24T11:34:54;16.90;99.90
7461;DHT22;6757;52.258;12.840;2023-04-24T11:37:22;17.00;99.90
7461;DHT22;6757;52.258;12.840;2023-04-24T11:39:52;17.00;99.90
7461;DHT22;6757;52.258;12.840;2023-04-24T11:44:49;17.20;99.90
7461;DHT22;6757;52.258;12.840;2023-04-24T11:47:16;17.30;99.90
7461;DHT22;6757;52.258;12.840;2023-04-24T11:49:43;17.40;99.90
7461;DHT22;6757;52.258;12.840;2023-04-24T11:52:10;18.10;99.90
7461;DHT22;6757;52.258;12.840;2023-04-24T11:54:47;17.40;99.90
7461;DHT22;6757;52.258;12.840;2023-04-24T11:57:15;17.50;99.50
7461;DHT22;6757;52.258;12.840;2023-04-24T11:59:42;17.50;98.80
7461;DHT22;6757;52.258;12.840;2023-04-24T12:02:20;17.50;97.50
7461;DHT22;6757;52.258;12.840;2023-04-24T12:04:48;17.50;96.00
7461;DHT22;6757;52.258;12.840;2023-04-24T12:07:15;17.50;95.50
7461;DHT22;6757;52.258;12.840;2023-04-24T12:09:43;17.50;95.50
7461;DHT22;6757;52.258;12.840;2023-04-24T12:12:11;17.60;95.40
7461;DHT22;6757;52.258;12.840;2023-04-24T12:14:47;17.80;95.60
7461;DHT22;6757;52.258;12.840;2023-04-24T12:17:16;18.30;95.50
7461;DHT22;6757;52.258;12.840;2023-04-24T12:19:46;17.80;95.00
7461;DHT22;6757;52.258;12.840;2023-04-24T12:22:13;17.70;94.70
7461;DHT22;6757;52.258;12.840;2023-04-24T12:25:00;17.90;94.10
7461;DHT22;6757;52.258;12.840;2023-04-24T12:27:31;18.00;92.10
7461;DHT22;6757;52.258;12.840;2023-04-24T12:30:00;17.90;91.80
7461;DHT22;6757;52.258;12.840;2023-04-24T12:32:30;18.40;92.30
7461;DHT22;6757;52.258;12.840;2023-04-24T12:34:57;18.00;92.30
7461;DHT22;6757;52.258;12.840;2023-04-24T12:37:25;18.30;92.50
7461;DHT22;6757;52.258;12.840;2023-04-24T12:40:00;18.50;91.90
7461;DHT22;6757;52.258;12.840;2023-04-24T12:42:29;18.40;91.30
7461;DHT22;6757;52.258;12.840;2023-04-24T12:44:57;18.30;90.60
7461;DHT22;6757;52.258;12.840;2023-04-24T12:47:26;18.20;90.30
7461;DHT22;6757;52.258;12.840;2023-04-24T12:49:54;18.00;89.60
7461;DHT22;6757;52.258;12.840;2023-04-24T12:52:22;17.80;89.20
7461;DHT22;6757;52.258;12.840;2023-04-24T12:54:52;17.60;89.20
7461;DHT22;6757;52.258;12.840;2023-04-24T12:57:20;17.50;89.00
7461;DHT22;6757;52.258;12.840;2023-04-24T12:59:47;17.50;88.50
7461;DHT22;6757;52.258;12.840;2023-04-24T13:02:14;17.50;86.90
7461;DHT22;6757;52.258;12.840;2023-04-24T13:04:43;17.40;86.00
7461;DHT22;6757;52.258;12.840;2023-04-24T13:07:12;17.40;87.00
7461;DHT22;6757;52.258;12.840;2023-04-24T13:09:40;17.60;86.60
7461;DHT22;6757;52.258;12.840;2023-04-24T13:12:07;17.90;85.70
7461;DHT22;6757;52.258;12.840;2023-04-24T13:14:35;18.20;85.30
7461;DHT22;6757;52.258;12.840;2023-04-24T13:17:02;18.20;84.50
7461;DHT22;6757;52.258;12.840;2023-04-24T13:19:29;18.30;83.40
7461;DHT22;6757;52.258;12.840;2023-04-24T13:22:02;18.10;83.30
7461;DHT22;6757;52.258;12.840;2023-04-24T13:24:31;18.00;83.80
7461;DHT22;6757;52.258;12.840;2023-04-24T13:26:59;18.10;84.00
7461;DHT22;6757;52.258;12.840;2023-04-24T13:29:26;18.40;84.10
7461;DHT22;6757;52.258;12.840;2023-04-24T13:31:54;19.60;84.60
7461;DHT22;6757;52.258;12.840;2023-04-24T13:34:21;19.70;82.40
7461;DHT22;6757;52.258;12.840;2023-04-24T13:36:49;20.50;81.00
7461;DHT22;6757;52.258;12.840;2023-04-24T13:39:17;21.10;79.30
7461;DHT22;6757;52.258;12.840;2023-04-24T13:41:45;21.80;76.30
7461;DHT22;6757;52.258;12.840;2023-04-24T13:44:14;22.20;72.30
7461;DHT22;6757;52.258;12.840;2023-04-24T13:46:42;22.20;70.50
7461;DHT22;6757;52.258;12.840;2023-04-24T13:49:10;22.40;69.90
7461;DHT22;6757;52.258;12.840;2023-04-24T13:51:37;21.90;69.30
7461;DHT22;6757;52.258;12.840;2023-04-24T13:54:05;21.70;68.70
7461;DHT22;6757;52.258;12.840;2023-04-24T13:56:32;21.40;68.70
7461;DHT22;6757;52.258;12.840;2023-04-24T13:59:01;21.50;69.40
7461;DHT22;6757;52.258;12.840;2023-04-24T14:01:28;21.80;69.00
7461;DHT22;6757;52.258;12.840;2023-04-24T14:03:55;21.80;68.30
7461;DHT22;6757;52.258;12.840;2023-04-24T14:06:22;21.80;67.40
7461;DHT22;6757;52.258;12.840;2023-04-24T14:08:50;21.70;66.80
7461;DHT22;6757;52.258;12.840;2023-04-24T14:11:18;21.20;66.60
7461;DHT22;6757;52.258;12.840;2023-04-24T14:13:46;20.80;66.90
7461;DHT22;6757;52.258;12.840;2023-04-24T14:16:14;20.40;67.60
7461;DHT22;6757;52.258;12.840;2023-04-24T14:18:41;20.00;68.30
7461;DHT22;6757;52.258;12.840;2023-04-24T14:21:08;19.50;68.50
7461;DHT22;6757;52.258;12.840;2023-04-24T14:23:35;19.10;69.10
7461;DHT22;6757;52.258;12.840;2023-04-24T14:26:02;18.80;70.20
7461;DHT22;6757;52.258;12.840;2023-04-24T14:28:29;18.50;71.00
7461;DHT22;6757;52.258;12.840;2023-04-24T14:30:56;18.30;71.70
7461;DHT22;6757;52.258;12.840;2023-04-24T14:33:25;18.00;72.40
7461;DHT22;6757;52.258;12.840;2023-04-24T14:35:52;17.80;73.80
7461;DHT22;6757;52.258;12.840;2023-04-24T14:38:19;17.70;73.60
7461;DHT22;6757;52.258;12.840;2023-04-24T14:40:46;17.50;74.00
7461;DHT22;6757;52.258;12.840;2023-04-24T14:43:13;17.40;74.10
7461;DHT22;6757;52.258;12.840;2023-04-24T14:45:40;17.40;73.70
7461;DHT22;6757;52.258;12.840;2023-04-24T14:48:07;17.30;73.10
7461;DHT22;6757;52.258;12.840;2023-04-24T14:50:36;17.30;73.70
7461;DHT22;6757;52.258;12.840;2023-04-24T14:53:03;17.20;73.50
7461;DHT22;6757;52.258;12.840;2023-04-24T14:55:30;17.20;73.90
7461;DHT22;6757;52.258;12.840;2023-04-24T14:57:58;17.20;74.00
7461;DHT22;6757;52.258;12.840;2023-04-24T15:00:25;17.10;73.40
7461;DHT22;6757;52.258;12.840;2023-04-24T15:02:52;17.10;73.50
7461;DHT22;6757;52.258;12.840;2023-04-24T15:05:20;17.00;73.70
7461;DHT22;6757;52.258;12.840;2023-04-24T15:07:49;17.60;74.80
7461;DHT22;6757;52.258;12.840;2023-04-24T15:10:16;17.00;73.60
7461;DHT22;6757;52.258;12.840;2023-04-24T15:12:44;17.00;73.70
7461;DHT22;6757;52.258;12.840;2023-04-24T15:15:11;17.10;74.00
7461;DHT22;6757;52.258;12.840;2023-04-24T15:17:38;17.10;74.10
7461;DHT22;6757;52.258;12.840;2023-04-24T15:20:06;17.20;74.50
7461;DHT22;6757;52.258;12.840;2023-04-24T15:22:34;17.10;75.00
7461;DHT22;6757;52.258;12.840;2023-04-24T15:25:03;17.00;75.30
7461;DHT22;6757;52.258;12.840;2023-04-24T15:27:40;16.90;76.10
7461;DHT22;6757;52.258;12.840;2023-04-24T15:30:09;16.70;76.10
7461;DHT22;6757;52.258;12.840;2023-04-24T15:32:37;16.50;76.30
7461;DHT22;6757;52.258;12.840;2023-04-24T15:35:05;16.30;76.80
7461;DHT22;6757;52.258;12.840;2023-04-24T15:37:32;16.10;77.40
7461;DHT22;6757;52.258;12.840;2023-04-24T15:40:00;15.90;78.20
7461;DHT22;6757;52.258;12.840;2023-04-24T15:42:30;15.80;79.30
7461;DHT22;6757;52.258;12.840;2023-04-24T15:44:57;15.60;80.20
7461;DHT22;6757;52.258;12.840;2023-04-24T15:47:25;15.40;81.50
7461;DHT22;6757;52.258;12.840;2023-04-24T15:49:52;15.70;82.70
7461;DHT22;6757;52.258;12.840;2023-04-24T15:52:19;15.10;82.80
7461;DHT22;6757;52.258;12.840;2023-04-24T15:54:46;15.00;83.50